createdAt,value
2022-09-28T00:00:20.433Z,4.00
2022-09-28T00:00:47.947Z,3.08
2022-09-28T00:01:13.963Z,4.78
2022-09-28T00:01:36.603Z,3.40
2022-09-28T00:02:00.873Z,2.70
2022-09-28T00:02:24.391Z,4.80
2022-09-28T00:02:47.495Z,5.13
2022-09-28T00:03:12.877Z,5.03
2022-09-28T00:03:35.797Z,4.22
2022-09-28T00:03:59.644Z,3.58
2022-09-28T00:04:22.587Z,3.08
2022-09-28T00:04:45.286Z,3.50
2022-09-28T00:05:09.142Z,3.38
2022-09-28T00:05:31.921Z,4.20
2022-09-28T00:06:00.059Z,3.50
2022-09-28T00:06:24.573Z,3.38
2022-09-28T00:06:50.325Z,4.05
2022-09-28T00:07:13.032Z,2.55
2022-09-28T00:07:35.745Z,2.35
2022-09-28T00:08:01.158Z,6.30
2022-09-28T00:08:23.917Z,3.83
2022-09-28T00:08:46.726Z,3.97
2022-09-28T00:09:09.475Z,3.05
2022-09-28T00:09:32.156Z,3.72
2022-09-28T00:09:54.792Z,3.85
2022-09-28T00:10:17.756Z,2.35
2022-09-28T00:10:41.778Z,3.65
2022-09-28T00:11:05.252Z,3.42
2022-09-28T00:11:28.503Z,3.63
2022-09-28T00:11:51.194Z,2.75
2022-09-28T00:12:13.945Z,2.38
2022-09-28T00:12:36.722Z,3.53
2022-09-28T00:13:01.938Z,3.70
2022-09-28T00:13:24.748Z,5.78
2022-09-28T00:13:51.808Z,5.43
2022-09-28T00:14:15.433Z,2.67
2022-09-28T00:14:40.677Z,4.20
2022-09-28T00:15:03.649Z,2.20
2022-09-28T00:15:26.368Z,2.20
2022-09-28T00:15:58.608Z,2.53
2022-09-28T00:16:22.826Z,2.40
2022-09-28T00:16:45.940Z,2.78
2022-09-28T00:17:12.211Z,4.25
2022-09-28T00:17:35.887Z,3.47
2022-09-28T00:17:58.598Z,3.75
2022-09-28T00:18:23.604Z,3.22
2022-09-28T00:18:46.441Z,4.63
2022-09-28T00:19:11.352Z,5.78
2022-09-28T00:19:34.546Z,3.05
2022-09-28T00:19:58.252Z,4.97
2022-09-28T00:20:23.266Z,5.30
2022-09-28T00:20:45.891Z,4.63
2022-09-28T00:21:13.171Z,4.18
2022-09-28T00:21:36.636Z,4.70
2022-09-28T00:21:59.302Z,5.07
2022-09-28T00:22:21.966Z,3.92
2022-09-28T00:22:44.764Z,3.30
2022-09-28T00:23:10.640Z,4.32
2022-09-28T00:23:54.387Z,4.25
2022-09-28T00:24:17.430Z,4.55
2022-09-28T00:24:42.619Z,3.90
2022-09-28T00:25:09.418Z,4.63
2022-09-28T00:25:34.567Z,3.10
2022-09-28T00:25:57.193Z,3.47
2022-09-28T00:26:19.798Z,3.10
2022-09-28T00:26:45.117Z,2.63
2022-09-28T00:27:09.617Z,5.22
2022-09-28T00:27:32.332Z,2.70
2022-09-28T00:27:57.332Z,2.30
2022-09-28T00:28:19.992Z,2.20
2022-09-28T00:28:42.654Z,2.30
2022-09-28T00:29:07.506Z,3.45
2022-09-28T00:29:34.181Z,2.53
2022-09-28T00:29:57.276Z,2.28
2022-09-28T00:30:22.458Z,3.40
2022-09-28T00:30:49.883Z,2.38
2022-09-28T00:31:13.275Z,3.20
2022-09-28T00:31:38.411Z,2.33
2022-09-28T00:32:03.115Z,2.50
2022-09-28T00:32:30.451Z,2.67
2022-09-28T00:32:53.116Z,2.20
2022-09-28T00:33:15.896Z,2.75
2022-09-28T00:33:43.523Z,4.38
2022-09-28T00:34:06.335Z,3.25
2022-09-28T00:34:29.981Z,6.03
2022-09-28T00:34:55.163Z,3.38
2022-09-28T00:35:17.872Z,2.40
2022-09-28T00:35:40.972Z,2.42
2022-09-28T00:36:03.672Z,2.33
2022-09-28T00:36:29.388Z,1.90
2022-09-28T00:36:52.158Z,2.25
2022-09-28T00:37:15.262Z,2.72
2022-09-28T00:37:40.159Z,3.67
2022-09-28T00:38:04.027Z,2.60
2022-09-28T00:38:28.645Z,2.17
2022-09-28T00:38:52.394Z,2.33
2022-09-28T00:39:15.576Z,3.55
2022-09-28T00:39:40.564Z,2.22
2022-09-28T00:40:03.339Z,3.50
2022-09-28T00:40:29.335Z,4.90
2022-09-28T00:40:52.028Z,3.80
2022-09-28T00:41:17.099Z,3.20
2022-09-28T00:41:39.905Z,3.25
2022-09-28T00:42:11.041Z,3.92
2022-09-28T00:42:33.800Z,2.63
2022-09-28T00:42:56.645Z,3.47
2022-09-28T00:43:22.545Z,3.58
2022-09-28T00:43:45.431Z,2.92
2022-09-28T00:44:40.242Z,2.72
2022-09-28T00:45:02.964Z,2.38
2022-09-28T00:45:26.292Z,2.90
2022-09-28T00:45:51.925Z,2.65
2022-09-28T00:46:16.686Z,2.97
2022-09-28T00:46:39.484Z,1.88
2022-09-28T00:47:06.625Z,2.08
2022-09-28T00:47:49.938Z,3.20
2022-09-28T00:48:12.666Z,3.10
2022-09-28T00:48:36.959Z,3.03
2022-09-28T00:49:03.224Z,2.20
2022-09-28T00:49:28.924Z,3.30
2022-09-28T00:49:54.065Z,3.90
2022-09-28T00:50:22.920Z,2.38
2022-09-28T00:50:46.239Z,3.00
2022-09-28T00:51:10.459Z,2.13
2022-09-28T00:51:35.559Z,2.47
2022-09-28T00:51:58.224Z,2.50
2022-09-28T00:52:28.539Z,2.58
2022-09-28T00:52:53.477Z,4.07
2022-09-28T00:53:18.112Z,4.07
2022-09-28T00:53:43.323Z,3.38
2022-09-28T00:54:06.277Z,3.40
2022-09-28T00:54:28.956Z,2.65
2022-09-28T00:54:54.081Z,2.50
2022-09-28T00:55:18.166Z,2.30
2022-09-28T00:55:45.277Z,2.08
2022-09-28T00:56:09.452Z,2.72
2022-09-28T00:56:32.637Z,3.00
2022-09-28T00:56:57.496Z,3.05
2022-09-28T00:57:20.731Z,2.88
2022-09-28T00:57:47.665Z,4.68
2022-09-28T00:58:14.075Z,3.42
2022-09-28T00:58:41.504Z,4.07
2022-09-28T00:59:05.215Z,3.30
2022-09-28T00:59:30.975Z,3.28
2022-09-28T00:59:56.203Z,3.58
2022-09-28T01:00:22.256Z,2.95
2022-09-28T01:00:45.107Z,3.55
2022-09-28T01:01:08.602Z,2.72
2022-09-28T01:01:33.671Z,2.80
2022-09-28T01:01:59.153Z,2.78
2022-09-28T01:02:22.050Z,2.45
2022-09-28T01:02:48.809Z,3.67
2022-09-28T01:03:13.801Z,3.28
2022-09-28T01:03:38.803Z,3.30
2022-09-28T01:04:04.263Z,3.33
2022-09-28T01:04:29.871Z,4.05
2022-09-28T01:04:53.007Z,2.78
2022-09-28T01:05:18.938Z,2.63
2022-09-28T01:05:43.961Z,3.28
2022-09-28T01:06:07.110Z,3.50
2022-09-28T01:06:34.090Z,4.18
2022-09-28T01:06:56.924Z,1.75
2022-09-28T01:07:22.665Z,2.67
2022-09-28T01:07:47.859Z,3.58
2022-09-28T01:08:10.705Z,5.30
2022-09-28T01:08:35.684Z,4.28
2022-09-28T01:09:02.575Z,2.97
2022-09-28T01:09:25.838Z,4.05
2022-09-28T01:09:48.695Z,3.95
2022-09-28T01:10:13.861Z,3.63
2022-09-28T01:10:39.131Z,2.65
2022-09-28T01:11:01.775Z,2.40
2022-09-28T01:11:26.816Z,3.67
2022-09-28T01:11:49.592Z,2.38
2022-09-28T01:12:15.281Z,2.17
2022-09-28T01:12:37.916Z,2.63
2022-09-28T01:13:00.631Z,4.22
2022-09-28T01:13:25.517Z,3.35
2022-09-28T01:13:48.901Z,3.13
2022-09-28T01:14:12.511Z,2.20
2022-09-28T01:14:35.272Z,2.40
2022-09-28T01:15:00.386Z,2.88
2022-09-28T01:15:24.809Z,2.55
2022-09-28T01:15:50.270Z,3.45
2022-09-28T01:16:15.089Z,2.45
2022-09-28T01:16:41.080Z,2.78
2022-09-28T01:17:08.817Z,3.10
2022-09-28T01:17:34.821Z,3.15
2022-09-28T01:18:08.003Z,4.78
2022-09-28T01:18:36.725Z,3.05
2022-09-28T01:19:02.167Z,3.47
2022-09-28T01:19:38.245Z,3.60
2022-09-28T01:20:18.691Z,3.33
2022-09-28T01:20:54.625Z,1.73
2022-09-28T01:21:18.467Z,2.63
2022-09-28T01:21:49.641Z,2.88
2022-09-28T01:22:19.516Z,3.10
2022-09-28T01:22:57.115Z,3.60
2022-09-28T01:23:33.449Z,2.80
2022-09-28T01:24:11.757Z,3.83
2022-09-28T01:24:41.141Z,1.80
2022-09-28T01:25:07.890Z,3.33
2022-09-28T01:25:34.705Z,3.05
2022-09-28T01:26:09.242Z,2.85
2022-09-28T01:27:17.301Z,3.22
2022-09-28T01:27:41.442Z,2.90
2022-09-28T01:28:05.540Z,3.08
2022-09-28T01:28:30.776Z,2.97
2022-09-28T01:28:56.933Z,4.03
2022-09-28T01:29:37.210Z,3.85
2022-09-28T01:30:02.220Z,3.75
2022-09-28T01:30:25.098Z,3.20
2022-09-28T01:30:50.426Z,3.05
2022-09-28T01:31:13.815Z,3.70
2022-09-28T01:31:38.810Z,2.75
2022-09-28T01:32:07.097Z,3.90
2022-09-28T01:32:38.798Z,2.70
2022-09-28T01:33:03.891Z,4.60
2022-09-28T01:33:31.478Z,3.95
2022-09-28T01:33:55.845Z,1.90
2022-09-28T01:34:21.610Z,3.10
2022-09-28T01:34:52.361Z,3.70
2022-09-28T01:35:16.400Z,3.50
2022-09-28T01:35:44.497Z,2.95
2022-09-28T01:36:10.072Z,3.47
2022-09-28T01:36:35.370Z,5.10
2022-09-28T01:36:58.835Z,3.28
2022-09-28T01:37:24.486Z,3.45
2022-09-28T01:37:52.500Z,2.60
2022-09-28T01:38:17.495Z,1.85
2022-09-28T01:38:42.855Z,3.10
2022-09-28T01:39:08.164Z,1.50
2022-09-28T01:39:35.875Z,2.13
2022-09-28T01:39:58.549Z,1.77
2022-09-28T01:40:24.955Z,2.88
2022-09-28T01:40:47.738Z,2.20
2022-09-28T01:41:14.302Z,1.70
2022-09-28T01:41:40.651Z,2.85
2022-09-28T01:42:05.846Z,4.45
2022-09-28T01:42:32.327Z,2.80
2022-09-28T01:42:59.307Z,2.33
2022-09-28T01:43:26.320Z,3.65
2022-09-28T01:43:50.907Z,2.17
2022-09-28T01:44:18.342Z,2.72
2022-09-28T01:44:42.940Z,2.30
2022-09-28T01:45:08.184Z,2.03
2022-09-28T01:45:32.865Z,3.22
2022-09-28T01:45:59.598Z,3.47
2022-09-28T01:46:23.038Z,3.40
2022-09-28T01:46:50.168Z,3.80
2022-09-28T01:47:14.232Z,3.97
2022-09-28T01:47:40.605Z,4.13
2022-09-28T01:48:05.234Z,2.47
2022-09-28T01:48:31.469Z,3.70
2022-09-28T01:48:55.796Z,2.78
2022-09-28T01:49:20.620Z,2.22
2022-09-28T01:49:45.165Z,2.70
2022-09-28T01:50:13.344Z,2.95
2022-09-28T01:50:38.467Z,3.05
2022-09-28T01:51:02.420Z,4.03
2022-09-28T01:51:28.680Z,2.10
2022-09-28T01:51:58.230Z,5.18
2022-09-28T01:52:23.365Z,2.17
2022-09-28T01:52:50.960Z,2.17
2022-09-28T01:53:16.444Z,1.88
2022-09-28T01:53:41.130Z,3.25
2022-09-28T01:54:07.039Z,1.77
2022-09-28T01:54:31.660Z,2.72
2022-09-28T01:54:56.641Z,2.75
2022-09-28T01:55:24.995Z,2.03
2022-09-28T01:55:49.546Z,4.20
2022-09-28T01:56:18.230Z,2.53
2022-09-28T01:56:43.077Z,3.83
2022-09-28T01:57:08.154Z,3.63
2022-09-28T01:57:34.766Z,3.20
2022-09-28T01:57:59.694Z,3.13
2022-09-28T01:58:24.956Z,5.75
2022-09-28T01:58:51.746Z,3.28
2022-09-28T01:59:15.679Z,3.55
2022-09-28T01:59:43.029Z,3.45
2022-09-28T02:00:07.744Z,2.80
2022-09-28T02:00:30.593Z,3.10
2022-09-28T02:00:59.457Z,5.15
2022-09-28T02:01:24.770Z,3.05
2022-09-28T02:01:49.580Z,2.53
2022-09-28T02:02:14.855Z,3.15
2022-09-28T02:02:39.366Z,4.10
2022-09-28T02:03:05.574Z,3.80
2022-09-28T02:03:32.313Z,3.40
2022-09-28T02:03:57.269Z,2.58
2022-09-28T02:04:21.969Z,2.15
2022-09-28T02:04:50.210Z,2.65
2022-09-28T02:05:17.594Z,2.92
2022-09-28T02:05:42.976Z,1.90
2022-09-28T02:06:08.315Z,3.30
2022-09-28T02:06:33.417Z,3.03
2022-09-28T02:06:58.540Z,2.85
2022-09-28T02:07:22.951Z,3.35
2022-09-28T02:07:47.522Z,3.17
2022-09-28T02:08:12.486Z,2.70
2022-09-28T02:08:36.760Z,3.60
2022-09-28T02:09:00.787Z,3.70
2022-09-28T02:09:24.986Z,4.85
2022-09-28T02:09:51.040Z,3.35
2022-09-28T02:10:16.499Z,5.38
2022-09-28T02:10:41.981Z,6.03
2022-09-28T02:11:06.620Z,4.10
2022-09-28T02:11:32.055Z,2.83
2022-09-28T02:11:56.871Z,5.75
2022-09-28T02:12:21.120Z,4.75
2022-09-28T02:12:45.437Z,3.47
2022-09-28T02:13:10.815Z,3.25
2022-09-28T02:13:34.255Z,4.05
2022-09-28T02:13:59.160Z,3.85
2022-09-28T02:14:21.875Z,4.22
2022-09-28T02:14:47.035Z,3.35
2022-09-28T02:15:12.961Z,5.22
2022-09-28T02:15:37.745Z,2.65
2022-09-28T02:16:03.243Z,2.30
2022-09-28T02:16:30.160Z,4.88
2022-09-28T02:16:56.896Z,3.70
2022-09-28T02:17:20.161Z,3.05
2022-09-28T02:17:42.881Z,3.60
2022-09-28T02:18:05.867Z,2.75
2022-09-28T02:18:28.996Z,2.00
2022-09-28T02:18:51.761Z,2.60
2022-09-28T02:19:16.150Z,2.22
2022-09-28T02:19:38.846Z,2.70
2022-09-28T02:20:04.649Z,3.60
2022-09-28T02:20:27.356Z,2.95
2022-09-28T02:20:53.607Z,3.42
2022-09-28T02:21:18.386Z,3.83
2022-09-28T02:21:43.433Z,4.30
2022-09-28T02:22:13.747Z,4.13
2022-09-28T02:22:40.812Z,4.40
2022-09-28T02:23:03.623Z,2.30
2022-09-28T02:23:26.959Z,3.83
2022-09-28T02:23:52.480Z,3.42
2022-09-28T02:24:21.429Z,3.97
2022-09-28T02:24:47.090Z,2.30
2022-09-28T02:25:11.766Z,2.45
2022-09-28T02:25:40.155Z,4.25
2022-09-28T02:26:04.150Z,5.70
2022-09-28T02:26:32.164Z,3.45
2022-09-28T02:26:59.211Z,2.15
2022-09-28T02:27:26.722Z,2.00
2022-09-28T02:27:52.662Z,2.00
2022-09-28T02:28:15.452Z,3.50
2022-09-28T02:28:38.194Z,3.75
2022-09-28T02:29:01.092Z,5.28
2022-09-28T02:29:23.987Z,2.75
2022-09-28T02:29:46.704Z,2.25
2022-09-28T02:30:10.127Z,2.55
2022-09-28T02:30:33.658Z,2.83
2022-09-28T02:30:56.412Z,5.10
2022-09-28T02:31:19.303Z,3.40
2022-09-28T02:31:42.270Z,3.42
2022-09-28T02:32:05.378Z,3.50
2022-09-28T02:32:28.047Z,2.00
2022-09-28T02:32:53.952Z,2.97
2022-09-28T02:33:19.643Z,3.00
2022-09-28T02:33:43.674Z,2.90
2022-09-28T02:34:06.604Z,2.72
2022-09-28T02:34:29.265Z,2.88
2022-09-28T02:34:54.480Z,3.45
2022-09-28T02:35:18.026Z,3.72
2022-09-28T02:35:41.761Z,3.30
2022-09-28T02:36:04.802Z,3.10
2022-09-28T02:36:27.869Z,4.18
2022-09-28T02:36:50.592Z,3.05
2022-09-28T02:37:15.726Z,3.85
2022-09-28T02:37:39.031Z,3.50
2022-09-28T02:38:01.817Z,3.55
2022-09-28T02:38:24.464Z,3.38
2022-09-28T02:38:47.205Z,3.38
2022-09-28T02:39:14.126Z,6.05
2022-09-28T02:39:37.053Z,5.95
2022-09-28T02:40:00.068Z,4.07
2022-09-28T02:40:24.092Z,7.32
2022-09-28T02:40:49.665Z,7.78
2022-09-28T02:41:18.562Z,8.02
2022-09-28T02:41:53.131Z,8.27
2022-09-28T02:42:20.390Z,9.18
2022-09-28T02:42:48.712Z,8.90
2022-09-28T02:43:14.590Z,9.68
2022-09-28T02:43:44.021Z,9.63
2022-09-28T02:44:13.319Z,10.18
2022-09-28T02:44:58.117Z,9.95
2022-09-28T02:45:28.153Z,9.10
2022-09-28T02:46:00.559Z,9.27
2022-09-28T02:46:28.653Z,8.52
2022-09-28T02:46:54.075Z,10.43
2022-09-28T02:47:22.576Z,10.07
2022-09-28T02:47:56.800Z,10.82
2022-09-28T02:48:43.648Z,10.60
2022-09-28T02:49:22.130Z,9.88
2022-09-28T02:49:47.195Z,9.30
2022-09-28T02:50:14.717Z,8.98
2022-09-28T02:50:42.635Z,6.80
2022-09-28T02:51:08.959Z,7.82
2022-09-28T02:51:34.401Z,7.22
2022-09-28T02:52:26.027Z,5.72
2022-09-28T02:52:58.461Z,5.72
2022-09-28T02:53:32.005Z,6.22
2022-09-28T02:54:08.096Z,4.53
2022-09-28T02:54:41.436Z,4.22
2022-09-28T02:55:26.839Z,4.78
2022-09-28T02:55:58.386Z,4.55
2022-09-28T02:56:32.966Z,4.47
2022-09-28T02:57:14.000Z,4.35
2022-09-28T02:57:43.255Z,3.60
2022-09-28T02:58:18.476Z,4.82
2022-09-28T02:58:45.133Z,4.80
2022-09-28T02:59:13.184Z,3.15
2022-09-28T02:59:52.968Z,4.15
2022-09-28T03:00:16.968Z,3.92
2022-09-28T03:00:43.732Z,3.80
2022-09-28T03:01:10.764Z,6.00
2022-09-28T03:01:36.000Z,2.78
2022-09-28T03:02:02.286Z,3.33
2022-09-28T03:02:29.153Z,4.07
2022-09-28T03:02:57.712Z,3.13
2022-09-28T03:03:21.902Z,2.08
2022-09-28T03:03:46.568Z,2.97
2022-09-28T03:04:12.488Z,3.20
2022-09-28T03:04:37.553Z,3.92
2022-09-28T03:05:10.081Z,3.35
2022-09-28T03:05:35.688Z,6.22
2022-09-28T03:06:00.513Z,4.32
2022-09-28T03:06:26.237Z,5.78
2022-09-28T03:06:53.197Z,2.97
2022-09-28T03:07:18.793Z,4.03
2022-09-28T03:07:44.943Z,2.80
2022-09-28T03:08:11.523Z,3.60
2022-09-28T03:08:35.996Z,2.30
2022-09-28T03:09:01.116Z,3.33
2022-09-28T03:09:25.972Z,3.70
2022-09-28T03:09:52.960Z,3.63
2022-09-28T03:10:18.099Z,5.30
2022-09-28T03:10:43.699Z,3.42
2022-09-28T03:11:09.048Z,3.63
2022-09-28T03:11:36.260Z,3.70
2022-09-28T03:12:00.073Z,3.75
2022-09-28T03:12:24.220Z,3.42
2022-09-28T03:12:51.702Z,4.32
2022-09-28T03:13:16.960Z,2.47
2022-09-28T03:13:42.033Z,2.42
2022-09-28T03:14:10.686Z,2.25
2022-09-28T03:14:33.360Z,2.20
2022-09-28T03:15:12.486Z,3.22
2022-09-28T03:15:35.770Z,2.47
2022-09-28T03:16:11.036Z,3.25
2022-09-28T03:16:36.373Z,3.35
2022-09-28T03:16:59.080Z,3.15
2022-09-28T03:17:24.000Z,4.03
2022-09-28T03:17:46.750Z,4.05
2022-09-28T03:18:09.490Z,2.90
2022-09-28T03:18:36.019Z,2.97
2022-09-28T03:18:58.720Z,3.00
2022-09-28T03:19:25.131Z,4.57
2022-09-28T03:19:47.792Z,4.13
2022-09-28T03:20:13.376Z,2.70
2022-09-28T03:20:36.159Z,3.30
2022-09-28T03:21:01.280Z,4.53
2022-09-28T03:21:23.936Z,3.95
2022-09-28T03:21:46.625Z,2.65
2022-09-28T03:22:09.441Z,3.80
2022-09-28T03:22:35.422Z,2.20
2022-09-28T03:23:26.191Z,5.30
2022-09-28T03:23:41.455Z,2.95
2022-09-28T03:24:05.998Z,3.97
2022-09-28T03:24:28.731Z,3.17
2022-09-28T03:24:52.609Z,5.10
2022-09-28T03:25:20.878Z,4.18
2022-09-28T03:25:43.521Z,3.88
2022-09-28T03:26:07.509Z,3.00
2022-09-28T03:26:30.213Z,3.55
2022-09-28T03:26:55.132Z,4.32
2022-09-28T03:27:17.993Z,3.03
2022-09-28T03:27:42.233Z,3.08
2022-09-28T03:28:07.488Z,2.80
2022-09-28T03:28:30.267Z,2.90
2022-09-28T03:28:52.956Z,2.42
2022-09-28T03:29:17.942Z,2.00
2022-09-28T03:29:41.064Z,2.25
2022-09-28T03:30:04.317Z,3.17
2022-09-28T03:30:30.297Z,3.33
2022-09-28T03:30:55.210Z,3.25
2022-09-28T03:31:17.874Z,2.70
2022-09-28T03:31:40.648Z,3.50
2022-09-28T03:32:03.386Z,4.80
2022-09-28T03:32:26.017Z,4.25
2022-09-28T03:32:54.871Z,3.42
2022-09-28T03:33:17.593Z,3.10
2022-09-28T03:33:42.696Z,2.30
2022-09-28T03:34:08.901Z,3.03
2022-09-28T03:34:31.542Z,3.67
2022-09-28T03:34:56.076Z,2.78
2022-09-28T03:35:21.331Z,3.05
2022-09-28T03:35:47.042Z,2.63
2022-09-28T03:36:10.091Z,4.10
2022-09-28T03:36:32.813Z,4.30
2022-09-28T03:36:57.731Z,2.65
2022-09-28T03:37:20.402Z,4.03
2022-09-28T03:37:43.122Z,2.45
2022-09-28T03:38:05.900Z,3.25
2022-09-28T03:38:28.663Z,2.65
2022-09-28T03:38:55.627Z,2.60
2022-09-28T03:39:18.554Z,3.53
2022-09-28T03:39:44.472Z,3.83
2022-09-28T03:40:10.162Z,3.00
2022-09-28T03:40:32.910Z,4.45
2022-09-28T03:40:56.156Z,3.35
2022-09-28T03:41:18.902Z,3.08
2022-09-28T03:41:41.682Z,2.67
2022-09-28T03:42:04.530Z,3.30
2022-09-28T03:42:27.427Z,2.33
2022-09-28T03:42:54.536Z,2.40
2022-09-28T03:43:17.188Z,2.05
2022-09-28T03:43:42.247Z,3.05
2022-09-28T03:44:07.209Z,2.53
2022-09-28T03:44:29.928Z,3.42
2022-09-28T03:44:52.972Z,3.28
2022-09-28T03:45:15.682Z,2.65
2022-09-28T03:45:40.792Z,2.85
2022-09-28T03:46:03.753Z,2.92
2022-09-28T03:46:28.677Z,2.95
2022-09-28T03:46:53.612Z,5.63
2022-09-28T03:47:18.068Z,3.92
2022-09-28T03:47:44.796Z,5.65
2022-09-28T03:48:07.531Z,3.50
2022-09-28T03:48:33.435Z,8.23
2022-09-28T03:48:57.940Z,5.88
2022-09-28T03:49:23.077Z,4.30
2022-09-28T03:49:48.015Z,4.10
2022-09-28T03:50:12.963Z,4.57
2022-09-28T03:50:35.655Z,2.55
2022-09-28T03:50:59.255Z,2.22
2022-09-28T03:51:24.305Z,2.67
2022-09-28T03:51:47.600Z,4.82
2022-09-28T03:52:13.269Z,4.90
2022-09-28T03:52:35.980Z,5.53
2022-09-28T03:53:03.535Z,4.57
2022-09-28T03:53:26.361Z,2.65
2022-09-28T03:53:49.016Z,3.10
2022-09-28T03:54:14.717Z,3.72
2022-09-28T03:54:37.447Z,2.33
2022-09-28T03:55:02.997Z,3.13
2022-09-28T03:55:25.616Z,2.75
2022-09-28T03:55:50.560Z,3.08
2022-09-28T03:56:14.096Z,3.85
2022-09-28T03:56:36.701Z,2.95
2022-09-28T03:57:01.653Z,4.43
2022-09-28T03:57:24.381Z,2.65
2022-09-28T03:57:57.477Z,3.00
2022-09-28T03:58:20.656Z,3.47
2022-09-28T03:58:43.645Z,2.80
2022-09-28T03:59:06.324Z,3.03
2022-09-28T03:59:31.195Z,3.78
2022-09-28T03:59:53.874Z,4.78
2022-09-28T04:00:19.990Z,3.42
2022-09-28T04:00:42.734Z,3.85
2022-09-28T04:01:06.666Z,4.15
2022-09-28T04:01:32.534Z,4.90
2022-09-28T04:01:55.365Z,4.32
2022-09-28T04:02:20.704Z,3.55
2022-09-28T04:02:43.344Z,5.22
2022-09-28T04:03:08.366Z,2.45
2022-09-28T04:03:31.687Z,3.40
2022-09-28T04:03:57.429Z,2.85
2022-09-28T04:04:20.153Z,2.85
2022-09-28T04:04:42.940Z,4.60
2022-09-28T04:05:06.473Z,3.90
2022-09-28T04:05:29.120Z,4.05
2022-09-28T04:05:52.111Z,3.25
2022-09-28T04:06:14.979Z,6.32
2022-09-28T04:06:37.714Z,3.63
2022-09-28T04:07:00.510Z,3.60
2022-09-28T04:07:24.088Z,3.13
2022-09-28T04:07:48.692Z,3.40
2022-09-28T04:08:11.349Z,3.83
2022-09-28T04:08:34.096Z,3.67
2022-09-28T04:08:56.935Z,2.38
2022-09-28T04:09:19.525Z,5.03
2022-09-28T04:09:43.439Z,4.40
2022-09-28T04:10:07.344Z,4.18
2022-09-28T04:10:30.151Z,4.28
2022-09-28T04:10:55.509Z,3.10
2022-09-28T04:11:18.215Z,4.03
2022-09-28T04:12:02.374Z,3.92
2022-09-28T04:12:23.674Z,3.25
2022-09-28T04:12:48.790Z,3.22
2022-09-28T04:13:15.429Z,3.50
2022-09-28T04:13:38.273Z,3.92
2022-09-28T04:14:03.418Z,4.00
2022-09-28T04:14:28.346Z,3.08
2022-09-28T04:14:51.078Z,4.40
2022-09-28T04:15:16.473Z,3.65
2022-09-28T04:15:39.209Z,3.92
2022-09-28T04:16:05.447Z,4.40
2022-09-28T04:16:28.374Z,7.10
2022-09-28T04:16:54.396Z,6.05
2022-09-28T04:17:17.119Z,3.35
2022-09-28T04:17:40.322Z,3.50
2022-09-28T04:18:03.210Z,4.00
2022-09-28T04:18:27.044Z,4.32
2022-09-28T04:18:52.943Z,3.58
2022-09-28T04:19:15.950Z,4.07
2022-09-28T04:19:38.659Z,4.90
2022-09-28T04:20:03.313Z,4.30
2022-09-28T04:20:28.609Z,4.28
2022-09-28T04:20:59.669Z,4.45
2022-09-28T04:21:23.343Z,2.40
2022-09-28T04:21:46.088Z,3.88
2022-09-28T04:22:09.762Z,3.22
2022-09-28T04:22:33.128Z,4.05
2022-09-28T04:22:55.828Z,3.85
2022-09-28T04:23:20.483Z,5.22
2022-09-28T04:23:43.229Z,4.72
2022-09-28T04:24:06.069Z,4.93
2022-09-28T04:24:28.869Z,5.32
2022-09-28T04:24:51.536Z,2.92
2022-09-28T04:25:14.244Z,3.28
2022-09-28T04:25:39.687Z,3.90
2022-09-28T04:26:02.473Z,4.85
2022-09-28T04:26:28.479Z,4.68
2022-09-28T04:26:51.317Z,3.20
2022-09-28T04:27:32.356Z,4.18
2022-09-28T04:28:13.536Z,4.57
2022-09-28T04:28:56.486Z,4.05
2022-09-28T04:29:20.144Z,4.50
2022-09-28T04:29:44.016Z,5.53
2022-09-28T04:30:08.629Z,5.72
2022-09-28T04:30:31.393Z,4.53
2022-09-28T04:30:54.007Z,2.15
2022-09-28T04:31:18.022Z,4.72
2022-09-28T04:31:41.914Z,4.63
2022-09-28T04:32:06.010Z,3.22
2022-09-28T04:32:28.732Z,5.10
2022-09-28T04:32:51.521Z,4.00
2022-09-28T04:33:14.238Z,3.85
2022-09-28T04:33:37.437Z,3.55
2022-09-28T04:34:00.124Z,4.28
2022-09-28T04:34:23.103Z,3.60
2022-09-28T04:34:45.761Z,3.72
2022-09-28T04:35:09.286Z,4.50
2022-09-28T04:35:32.001Z,3.42
2022-09-28T04:35:54.803Z,3.15
2022-09-28T04:36:20.020Z,4.88
2022-09-28T04:36:42.720Z,4.18
2022-09-28T04:37:05.446Z,5.93
2022-09-28T04:37:31.333Z,5.15
2022-09-28T04:37:54.076Z,3.83
2022-09-28T04:38:26.920Z,3.35
2022-09-28T04:39:00.328Z,6.35
2022-09-28T04:39:24.251Z,3.35
2022-09-28T04:39:48.622Z,5.70
2022-09-28T04:40:11.735Z,5.63
2022-09-28T04:40:34.559Z,5.15
2022-09-28T04:40:57.405Z,5.97
2022-09-28T04:41:20.175Z,5.15
2022-09-28T04:41:42.871Z,4.13
2022-09-28T04:42:05.667Z,5.05
2022-09-28T04:42:28.351Z,3.50
2022-09-28T04:42:56.377Z,4.97
2022-09-28T04:43:20.150Z,3.65
2022-09-28T04:43:46.376Z,4.38
2022-09-28T04:44:09.380Z,3.97
2022-09-28T04:44:32.118Z,3.15
2022-09-28T04:44:58.076Z,4.00
2022-09-28T04:45:20.902Z,4.07
2022-09-28T04:45:43.575Z,4.13
2022-09-28T04:46:09.096Z,4.32
2022-09-28T04:46:31.859Z,3.80
2022-09-28T04:46:55.786Z,2.92
2022-09-28T04:47:18.566Z,3.47
2022-09-28T04:47:41.281Z,3.42
2022-09-28T04:48:06.268Z,5.20
2022-09-28T04:48:29.071Z,4.85
2022-09-28T04:48:51.904Z,5.32
2022-09-28T04:49:14.985Z,5.28
2022-09-28T04:49:38.535Z,5.13
2022-09-28T04:50:01.210Z,5.22
2022-09-28T04:50:23.850Z,2.72
2022-09-28T04:50:54.883Z,3.70
2022-09-28T04:51:17.597Z,2.90
2022-09-28T04:51:40.320Z,3.20
2022-09-28T04:52:02.967Z,3.65
2022-09-28T04:52:26.858Z,4.82
2022-09-28T04:52:49.550Z,4.03
2022-09-28T04:53:12.216Z,4.85
2022-09-28T04:53:35.558Z,3.33
2022-09-28T04:53:58.313Z,3.55
2022-09-28T04:54:21.010Z,3.08
2022-09-28T04:54:46.812Z,5.22
2022-09-28T04:55:12.007Z,4.75
2022-09-28T04:55:34.837Z,5.57
2022-09-28T04:55:58.395Z,4.40
2022-09-28T04:56:21.119Z,3.63
2022-09-28T04:56:43.810Z,5.13
2022-09-28T04:57:06.410Z,6.18
2022-09-28T04:57:29.103Z,5.13
2022-09-28T04:57:51.805Z,4.28
2022-09-28T04:58:14.479Z,4.68
2022-09-28T04:58:37.185Z,5.07
2022-09-28T04:59:01.304Z,6.20
2022-09-28T04:59:24.338Z,4.22
2022-09-28T04:59:47.210Z,3.92
2022-09-28T05:00:12.970Z,4.53
2022-09-28T05:00:35.776Z,4.05
2022-09-28T05:00:59.377Z,3.08
2022-09-28T05:01:24.409Z,4.93
2022-09-28T05:01:47.705Z,5.25
2022-09-28T05:02:11.138Z,4.05
2022-09-28T05:02:34.931Z,4.10
2022-09-28T05:02:57.675Z,3.33
2022-09-28T05:03:21.145Z,3.95
2022-09-28T05:03:43.848Z,5.72
2022-09-28T05:04:06.561Z,4.40
2022-09-28T05:04:30.911Z,4.63
2022-09-28T05:04:55.531Z,4.00
2022-09-28T05:05:18.230Z,5.93
2022-09-28T05:05:46.967Z,4.57
2022-09-28T05:06:15.240Z,7.40
2022-09-28T05:06:37.912Z,7.97
2022-09-28T05:07:02.930Z,8.05
2022-09-28T05:07:26.423Z,6.97
2022-09-28T05:07:51.828Z,6.50
2022-09-28T05:08:14.553Z,8.07
2022-09-28T05:08:37.273Z,6.25
2022-09-28T05:08:59.987Z,6.53
2022-09-28T05:09:22.720Z,7.03
2022-09-28T05:09:45.442Z,7.25
2022-09-28T05:10:09.445Z,3.92
2022-09-28T05:10:32.162Z,5.22
2022-09-28T05:10:58.406Z,6.78
2022-09-28T05:11:21.807Z,4.70
2022-09-28T05:11:44.467Z,4.03
2022-09-28T05:12:08.562Z,4.93
2022-09-28T05:12:31.192Z,5.70
2022-09-28T05:12:57.110Z,5.55
2022-09-28T05:13:21.141Z,4.65
2022-09-28T05:13:45.571Z,5.60
2022-09-28T05:14:11.256Z,4.32
2022-09-28T05:14:36.410Z,3.97
2022-09-28T05:14:59.030Z,5.43
2022-09-28T05:15:22.010Z,5.82
2022-09-28T05:15:44.657Z,3.20
2022-09-28T05:16:10.258Z,4.90
2022-09-28T05:16:34.125Z,6.85
2022-09-28T05:16:57.226Z,7.40
2022-09-28T05:17:20.155Z,6.20
2022-09-28T05:17:42.917Z,5.97
2022-09-28T05:18:08.835Z,5.85
2022-09-28T05:18:31.496Z,6.28
2022-09-28T05:18:58.728Z,7.40
2022-09-28T05:19:21.442Z,10.10
2022-09-28T05:19:44.221Z,10.13
2022-09-28T05:20:09.125Z,12.73
2022-09-28T05:20:31.762Z,9.05
2022-09-28T05:20:54.536Z,9.70
2022-09-28T05:21:19.860Z,11.65
2022-09-28T05:21:44.690Z,8.63
2022-09-28T05:22:11.716Z,10.65
2022-09-28T05:22:34.471Z,14.75
2022-09-28T05:22:59.947Z,10.40
2022-09-28T05:23:22.742Z,9.98
2022-09-28T05:23:46.720Z,10.85
2022-09-28T05:24:10.415Z,11.52
2022-09-28T05:24:33.140Z,14.00
2022-09-28T05:24:58.355Z,10.15
2022-09-28T05:25:21.073Z,10.43
2022-09-28T05:25:46.161Z,9.27
2022-09-28T05:26:08.890Z,9.88
2022-09-28T05:26:31.582Z,10.10
2022-09-28T05:26:54.376Z,10.52
2022-09-28T05:27:17.175Z,9.73
2022-09-28T05:27:40.056Z,10.80
2022-09-28T05:28:03.537Z,11.05
2022-09-28T05:28:28.137Z,11.63
2022-09-28T05:28:51.185Z,27.83
2022-09-28T05:29:15.404Z,15.85
2022-09-28T05:29:38.124Z,12.60
2022-09-28T05:30:00.776Z,11.77
2022-09-28T05:30:23.519Z,13.70
2022-09-28T05:30:46.513Z,10.55
2022-09-28T05:31:09.501Z,10.95
2022-09-28T05:31:32.645Z,10.43
2022-09-28T05:31:55.730Z,10.45
2022-09-28T05:32:18.378Z,13.55
2022-09-28T05:32:41.758Z,11.68
2022-09-28T05:33:04.804Z,10.73
2022-09-28T05:33:27.656Z,10.50
2022-09-28T05:33:50.948Z,12.02
2022-09-28T05:34:13.603Z,14.10
2022-09-28T05:34:36.319Z,14.38
2022-09-28T05:35:01.279Z,14.20
2022-09-28T05:35:23.992Z,14.90